createdAt,value
2019-01-11T00:01:24.134Z,8.70
2019-01-11T00:03:55.653Z,9.43
2019-01-11T00:06:27.068Z,8.95
2019-01-11T00:08:58.708Z,9.48
2019-01-11T00:11:31.282Z,9.45
2019-01-11T00:14:02.745Z,9.63
2019-01-11T00:16:34.216Z,7.92
2019-01-11T00:19:07.175Z,9.78
2019-01-11T00:21:38.765Z,9.08
2019-01-11T00:24:10.205Z,8.93
2019-01-11T00:26:41.600Z,9.25
2019-01-11T00:29:13.020Z,9.40
2019-01-11T00:31:44.460Z,8.35
2019-01-11T00:34:15.866Z,10.55
2019-01-11T00:36:47.275Z,10.48
2019-01-11T00:39:18.700Z,9.08
2019-01-11T00:41:50.124Z,8.85
2019-01-11T00:44:21.520Z,9.23
2019-01-11T00:46:52.934Z,8.60
2019-01-11T00:49:24.421Z,8.95
2019-01-11T00:51:55.784Z,9.48
2019-01-11T00:54:27.798Z,8.88
2019-01-11T00:56:59.113Z,9.30
2019-01-11T00:59:33.634Z,9.60
2019-01-11T01:02:05.289Z,10.08
2019-01-11T01:04:36.792Z,9.85
2019-01-11T01:07:08.483Z,8.48
2019-01-11T01:09:40.100Z,10.68
2019-01-11T01:12:11.761Z,8.50
2019-01-11T01:14:43.166Z,8.85
2019-01-11T01:17:14.692Z,9.45
2019-01-11T01:19:46.135Z,9.73
2019-01-11T01:22:17.552Z,10.20
2019-01-11T01:24:48.993Z,9.70
2019-01-11T01:27:20.396Z,9.33
2019-01-11T01:29:51.840Z,9.43
2019-01-11T01:32:23.253Z,10.05
2019-01-11T01:34:54.711Z,9.48
2019-01-11T01:37:25.993Z,9.55
2019-01-11T01:39:57.423Z,10.20
2019-01-11T01:42:28.740Z,9.43
2019-01-11T01:45:00.225Z,10.05
2019-01-11T01:47:31.640Z,8.78
2019-01-11T01:50:03.038Z,10.53
2019-01-11T01:52:35.424Z,9.58
2019-01-11T01:55:08.236Z,9.60
2019-01-11T01:57:39.632Z,10.60
2019-01-11T02:00:15.017Z,10.55
2019-01-11T02:02:47.608Z,9.93
2019-01-11T02:05:19.116Z,10.15
2019-01-11T02:07:50.620Z,10.80
2019-01-11T02:10:22.089Z,10.13
2019-01-11T02:12:53.554Z,10.82
2019-01-11T02:15:24.975Z,11.80
2019-01-11T02:17:56.485Z,11.30
2019-01-11T02:20:27.808Z,12.53
2019-01-11T02:22:59.402Z,11.93
2019-01-11T02:25:30.745Z,10.85
2019-01-11T02:28:02.155Z,11.97
2019-01-11T02:30:35.384Z,10.65
2019-01-11T02:33:06.901Z,12.20
2019-01-11T02:35:50.534Z,10.90
2019-01-11T02:38:21.906Z,12.85
2019-01-11T02:40:53.366Z,12.28
2019-01-11T02:43:24.793Z,11.95
2019-01-11T02:45:56.227Z,11.70
2019-01-11T02:48:27.651Z,11.15
2019-01-11T02:50:59.112Z,12.40
2019-01-11T02:53:30.809Z,12.25
2019-01-11T02:56:02.282Z,12.53
2019-01-11T02:58:33.742Z,13.10
2019-01-11T03:01:05.266Z,12.05
2019-01-11T03:03:36.697Z,11.93
2019-01-11T03:06:08.270Z,11.10
2019-01-11T03:08:39.722Z,11.45
2019-01-11T03:11:11.123Z,11.45
2019-01-11T03:13:42.565Z,12.07
2019-01-11T03:16:14.032Z,10.55
2019-01-11T03:18:45.322Z,10.82
2019-01-11T03:21:16.804Z,10.82
2019-01-11T03:23:48.271Z,11.75
2019-01-11T03:26:19.703Z,11.15
2019-01-11T03:28:51.152Z,11.50
2019-01-11T03:31:34.732Z,11.57
2019-01-11T03:34:07.137Z,11.75
2019-01-11T03:36:38.594Z,11.63
2019-01-11T03:39:11.029Z,12.68
2019-01-11T03:42:07.494Z,12.05
2019-01-11T03:44:39.117Z,11.80
2019-01-11T03:47:10.571Z,11.88
2019-01-11T03:49:41.999Z,10.23
2019-01-11T03:52:13.432Z,10.32
2019-01-11T03:54:44.901Z,11.43
2019-01-11T03:57:16.328Z,11.53
2019-01-11T03:59:47.843Z,12.33
2019-01-11T04:02:19.263Z,10.85
2019-01-11T04:04:50.704Z,11.12
2019-01-11T04:07:22.171Z,10.43
2019-01-11T04:09:53.649Z,10.28
2019-01-11T04:12:25.111Z,11.65
2019-01-11T04:14:56.484Z,12.33
2019-01-11T04:17:28.228Z,11.00
2019-01-11T04:20:02.185Z,9.55
2019-01-11T04:22:34.385Z,11.53
2019-01-11T04:25:07.874Z,11.45
2019-01-11T04:27:39.323Z,11.90
2019-01-11T04:30:16.153Z,11.88
2019-01-11T04:32:47.712Z,11.80
2019-01-11T04:35:19.442Z,10.58
2019-01-11T04:37:50.943Z,12.50
2019-01-11T04:40:23.603Z,10.90
2019-01-11T04:42:54.936Z,11.18
2019-01-11T04:45:26.481Z,12.25
2019-01-11T04:47:57.941Z,11.22
2019-01-11T04:50:29.318Z,11.85
2019-01-11T04:53:00.754Z,11.80
2019-01-11T04:55:32.185Z,12.55
2019-01-11T04:58:03.638Z,11.90
2019-01-11T05:00:35.154Z,11.03
2019-01-11T05:03:06.545Z,10.45
2019-01-11T05:05:38.047Z,11.28
2019-01-11T05:08:09.579Z,11.45
2019-01-11T05:10:41.071Z,10.95
2019-01-11T05:13:29.825Z,10.95
2019-01-11T05:16:01.324Z,9.10
2019-01-11T05:18:32.777Z,9.90
2019-01-11T05:21:04.296Z,10.40
2019-01-11T05:23:35.824Z,10.25
2019-01-11T05:26:07.330Z,10.13
2019-01-11T05:28:38.795Z,10.82
2019-01-11T05:31:10.288Z,11.35
2019-01-11T05:33:41.769Z,10.48
2019-01-11T05:36:13.296Z,11.35
2019-01-11T05:38:44.710Z,10.55
2019-01-11T05:41:16.253Z,10.55
2019-01-11T05:43:47.576Z,10.90
2019-01-11T05:46:18.997Z,10.63
2019-01-11T05:48:50.501Z,10.40
2019-01-11T05:51:21.911Z,11.20
2019-01-11T05:53:53.421Z,10.70
2019-01-11T05:56:24.804Z,10.65
2019-01-11T05:59:05.124Z,10.45
2019-01-11T06:01:36.645Z,10.28
2019-01-11T06:04:39.176Z,9.18
2019-01-11T06:07:24.368Z,10.50
2019-01-11T06:09:55.788Z,9.88
2019-01-11T06:12:27.200Z,9.85
2019-01-11T06:14:59.102Z,11.35
2019-01-11T06:17:30.590Z,10.40
2019-01-11T06:20:02.215Z,10.85
2019-01-11T06:22:33.660Z,10.70
2019-01-11T06:25:05.348Z,11.57
2019-01-11T06:27:38.317Z,11.20
2019-01-11T06:30:13.097Z,11.08
2019-01-11T06:32:44.633Z,10.60
2019-01-11T06:35:16.284Z,11.22
2019-01-11T06:37:47.988Z,10.48
2019-01-11T06:40:21.518Z,10.40
2019-01-11T06:42:55.159Z,10.38
2019-01-11T06:45:26.559Z,9.63
2019-01-11T06:47:58.011Z,10.18
2019-01-11T06:50:29.570Z,9.70
2019-01-11T06:53:01.124Z,10.65
2019-01-11T06:55:32.600Z,10.03
2019-01-11T06:58:04.125Z,10.32
2019-01-11T07:00:35.662Z,9.73
2019-01-11T07:03:06.984Z,9.73
2019-01-11T07:05:38.546Z,10.00
2019-01-11T07:08:10.026Z,10.32
2019-01-11T07:10:41.400Z,10.08
2019-01-11T07:13:12.879Z,12.03
2019-01-11T07:15:44.373Z,9.68
2019-01-11T07:18:15.822Z,10.08
2019-01-11T07:20:47.292Z,10.28
2019-01-11T07:23:19.029Z,10.68
2019-01-11T07:25:50.420Z,9.88
2019-01-11T07:28:21.817Z,11.03
2019-01-11T07:31:13.414Z,11.05
2019-01-11T07:33:45.021Z,10.40
2019-01-11T07:36:36.247Z,10.25
2019-01-11T07:39:21.948Z,10.32
2019-01-11T07:41:53.421Z,8.93
2019-01-11T07:44:25.315Z,9.73
2019-01-11T07:46:57.114Z,10.05
2019-01-11T07:49:28.781Z,9.33
2019-01-11T07:52:00.210Z,9.20
2019-01-11T07:54:31.634Z,9.20
2019-01-11T07:57:02.968Z,9.53
2019-01-11T07:59:34.459Z,10.93
2019-01-11T08:02:06.014Z,8.28
2019-01-11T08:04:37.431Z,9.38
2019-01-11T08:07:08.913Z,9.55
2019-01-11T08:09:40.280Z,9.85
2019-01-11T08:12:11.713Z,10.13
2019-01-11T08:14:43.131Z,10.23
2019-01-11T08:17:14.587Z,10.32
2019-01-11T08:19:46.002Z,10.55
2019-01-11T08:22:42.173Z,10.50
2019-01-11T08:25:14.783Z,11.33
2019-01-11T08:27:46.620Z,10.18
2019-01-11T08:30:18.179Z,10.90
2019-01-11T08:32:49.667Z,11.12
2019-01-11T08:35:21.012Z,9.45
2019-01-11T08:37:52.386Z,11.15
2019-01-11T08:40:24.109Z,10.28
2019-01-11T08:42:55.575Z,10.08
2019-01-11T08:45:27.014Z,10.98
2019-01-11T08:47:58.796Z,9.43
2019-01-11T08:50:30.252Z,9.80
2019-01-11T08:53:01.676Z,11.48
2019-01-11T08:55:33.210Z,11.08
2019-01-11T08:58:04.648Z,12.05
2019-01-11T09:00:36.086Z,10.78
2019-01-11T09:03:07.519Z,11.05
2019-01-11T09:05:39.091Z,11.88
2019-01-11T09:08:11.101Z,10.43
2019-01-11T09:10:42.716Z,9.90
2019-01-11T09:13:14.091Z,10.98
2019-01-11T09:15:45.494Z,10.88
2019-01-11T09:18:18.954Z,11.73
2019-01-11T09:20:50.461Z,12.53
2019-01-11T09:23:21.857Z,10.85
2019-01-11T09:25:53.258Z,11.78
2019-01-11T09:28:24.577Z,10.30
2019-01-11T09:30:56.023Z,10.30
2019-01-11T09:33:27.448Z,12.75
2019-01-11T09:36:00.629Z,11.95
2019-01-11T09:38:32.720Z,11.33
2019-01-11T09:41:11.907Z,12.50
2019-01-11T09:43:44.767Z,9.73
2019-01-11T09:46:16.258Z,8.85
2019-01-11T09:48:47.794Z,9.38
2019-01-11T09:51:19.643Z,9.33
2019-01-11T09:53:51.173Z,10.50
2019-01-11T09:56:22.923Z,8.85
2019-01-11T09:58:54.284Z,7.80
2019-01-11T10:01:25.631Z,10.55
2019-01-11T10:03:57.127Z,9.40
2019-01-11T10:06:28.557Z,10.72
2019-01-11T10:08:59.969Z,9.48
2019-01-11T10:11:31.395Z,10.48
2019-01-11T10:14:03.133Z,10.55
2019-01-11T10:16:34.591Z,9.80
2019-01-11T10:19:06.215Z,8.33
2019-01-11T10:21:37.603Z,9.13
2019-01-11T10:24:10.043Z,8.98
2019-01-11T10:26:41.523Z,10.08
2019-01-11T10:29:12.927Z,9.30
2019-01-11T10:31:44.354Z,9.58
2019-01-11T10:34:15.804Z,10.98
2019-01-11T10:36:47.128Z,9.08
2019-01-11T10:39:18.621Z,9.10
2019-01-11T10:41:50.043Z,10.53
2019-01-11T10:44:21.501Z,10.18
2019-01-11T10:46:53.086Z,10.35
2019-01-11T10:49:24.512Z,9.00
2019-01-11T10:51:55.974Z,9.70
2019-01-11T10:54:39.445Z,9.20
2019-01-11T10:57:11.191Z,8.40
2019-01-11T10:59:42.529Z,9.83
2019-01-11T11:02:13.974Z,8.55
2019-01-11T11:04:45.355Z,8.50
2019-01-11T11:07:16.787Z,8.60
2019-01-11T11:09:48.135Z,9.38
2019-01-11T11:12:19.567Z,9.45
2019-01-11T11:14:52.295Z,7.60
2019-01-11T11:17:23.758Z,8.68
2019-01-11T11:19:55.212Z,8.85
2019-01-11T11:22:26.582Z,8.83
2019-01-11T11:24:57.957Z,8.98
2019-01-11T11:27:29.373Z,8.40
2019-01-11T11:30:00.924Z,9.83
2019-01-11T11:32:49.997Z,8.53
2019-01-11T11:35:21.566Z,8.05
2019-01-11T11:37:53.080Z,7.92
2019-01-11T11:40:25.107Z,8.15
2019-01-11T11:42:56.570Z,8.80
2019-01-11T11:45:27.979Z,8.48
2019-01-11T11:47:59.400Z,9.65
2019-01-11T11:50:30.783Z,9.43
2019-01-11T11:53:02.632Z,9.30
2019-01-11T11:55:34.075Z,9.00
2019-01-11T11:58:05.457Z,8.60
2019-01-11T12:00:36.984Z,9.40
2019-01-11T12:03:08.411Z,9.10
2019-01-11T12:05:40.017Z,9.28
2019-01-11T12:08:11.609Z,10.15
2019-01-11T12:10:43.193Z,8.73
2019-01-11T12:13:14.761Z,10.13
2019-01-11T12:15:46.285Z,9.25
2019-01-11T12:18:17.750Z,9.18
2019-01-11T12:20:49.310Z,9.55
2019-01-11T12:23:20.757Z,10.23
2019-01-11T12:25:53.327Z,9.60
2019-01-11T12:28:24.731Z,11.12
2019-01-11T12:30:56.134Z,10.90
2019-01-11T12:33:28.493Z,10.35
2019-01-11T12:35:59.989Z,10.65
2019-01-11T12:38:31.356Z,10.15
2019-01-11T12:41:02.807Z,10.85
2019-01-11T12:43:34.298Z,11.12
2019-01-11T12:46:05.771Z,10.40
2019-01-11T12:48:37.298Z,12.53
2019-01-11T12:51:08.693Z,10.30
2019-01-11T12:53:40.143Z,10.35
2019-01-11T12:56:11.951Z,10.90
2019-01-11T12:58:43.480Z,10.72
2019-01-11T13:01:15.178Z,9.73
2019-01-11T13:03:46.627Z,9.28
2019-01-11T13:06:17.985Z,10.93
2019-01-11T13:08:49.462Z,11.20
2019-01-11T13:11:23.589Z,11.00
2019-01-11T13:13:55.401Z,9.70
2019-01-11T13:16:26.852Z,9.45
2019-01-11T13:18:58.501Z,10.90
2019-01-11T13:21:30.096Z,11.05
2019-01-11T13:24:01.597Z,10.72
2019-01-11T13:26:33.135Z,10.38
2019-01-11T13:29:06.598Z,9.53
2019-01-11T13:31:38.152Z,10.20
2019-01-11T13:34:09.638Z,9.98
2019-01-11T13:36:41.043Z,9.13
2019-01-11T13:39:13.608Z,10.23
2019-01-11T13:41:44.967Z,9.70
2019-01-11T13:44:16.394Z,10.63
2019-01-11T13:46:51.872Z,10.53
2019-01-11T13:49:23.269Z,10.63
2019-01-11T13:51:54.619Z,9.85
2019-01-11T13:54:26.084Z,10.60
2019-01-11T13:56:57.510Z,10.10
2019-01-11T13:59:28.964Z,11.22
2019-01-11T14:02:00.345Z,9.25
2019-01-11T14:04:31.784Z,10.75
2019-01-11T14:07:03.171Z,11.00
2019-01-11T14:09:34.929Z,10.50
2019-01-11T14:12:06.345Z,10.72
2019-01-11T14:14:37.716Z,8.98
2019-01-11T14:17:09.008Z,10.98
2019-01-11T14:19:40.429Z,9.58
2019-01-11T14:22:15.158Z,9.13
2019-01-11T14:24:46.467Z,10.23
2019-01-11T14:27:17.917Z,10.95
2019-01-11T14:29:49.599Z,10.25
2019-01-11T14:32:21.067Z,9.35
2019-01-11T14:34:52.553Z,9.78
2019-01-11T14:37:23.917Z,9.25
2019-01-11T14:39:55.277Z,9.23
2019-01-11T14:42:27.050Z,9.38
2019-01-11T14:44:58.470Z,7.42
2019-01-11T14:47:29.886Z,9.58
2019-01-11T14:50:01.220Z,8.38
2019-01-11T14:52:32.720Z,10.13
2019-01-11T14:55:04.120Z,8.83
2019-01-11T14:57:35.534Z,10.08
2019-01-11T15:00:11.068Z,10.10
2019-01-11T15:02:43.843Z,8.83
2019-01-11T15:05:16.225Z,9.13
2019-01-11T15:07:47.604Z,10.53
2019-01-11T15:10:19.116Z,9.85
2019-01-11T15:12:51.194Z,10.68
2019-01-11T15:15:22.618Z,10.60
2019-01-11T15:17:54.064Z,10.85
2019-01-11T15:20:25.468Z,10.20
2019-01-11T15:22:56.941Z,11.20
2019-01-11T15:25:28.673Z,10.43
2019-01-11T15:28:00.044Z,10.32
2019-01-11T15:30:31.394Z,11.10
2019-01-11T15:33:02.910Z,10.10
2019-01-11T15:35:34.392Z,9.20
2019-01-11T15:38:06.152Z,10.60
2019-01-11T15:40:38.404Z,9.38
2019-01-11T15:43:09.794Z,9.60
2019-01-11T15:45:41.262Z,10.05
2019-01-11T15:48:19.000Z,10.70
2019-01-11T15:51:00.080Z,9.68
2019-01-11T15:53:40.604Z,9.88
2019-01-11T15:56:13.541Z,10.60
2019-01-11T15:58:44.963Z,11.22
2019-01-11T16:01:16.294Z,10.98
2019-01-11T16:03:49.854Z,11.83
2019-01-11T16:06:29.907Z,11.75
2019-01-11T16:10:16.466Z,9.93
2019-01-11T16:12:58.054Z,9.48
2019-01-11T16:16:26.272Z,9.90
2019-01-11T16:19:00.585Z,10.45
2019-01-11T16:21:34.212Z,9.50
2019-01-11T16:24:09.147Z,10.53
2019-01-11T16:26:43.425Z,9.85
2019-01-11T16:29:15.194Z,10.08
2019-01-11T16:31:46.646Z,8.85
2019-01-11T16:34:18.047Z,8.10
2019-01-11T16:36:49.739Z,10.30
2019-01-11T16:39:21.403Z,9.25
2019-01-11T16:41:52.943Z,8.50
2019-01-11T16:44:24.477Z,8.50
2019-01-11T16:46:56.005Z,9.75
2019-01-11T16:49:27.808Z,9.48
2019-01-11T16:51:59.550Z,9.25
2019-01-11T16:54:31.013Z,8.85
2019-01-11T16:57:02.726Z,9.60
2019-01-11T16:59:34.288Z,9.45
2019-01-11T17:02:05.927Z,9.53
2019-01-11T17:04:37.375Z,9.40
2019-01-11T17:07:08.831Z,9.33
2019-01-11T17:09:40.313Z,9.15
2019-01-11T17:12:11.746Z,9.50
2019-01-11T17:14:43.269Z,8.90
2019-01-11T17:17:14.800Z,9.10
2019-01-11T17:19:46.243Z,9.63
2019-01-11T17:22:17.917Z,10.75
2019-01-11T17:24:49.280Z,11.33
2019-01-11T17:27:20.656Z,10.03
2019-01-11T17:29:57.309Z,10.00
2019-01-11T17:32:29.815Z,9.98
2019-01-11T17:35:01.303Z,8.48
2019-01-11T17:37:32.711Z,9.65
2019-01-11T17:40:05.092Z,11.40
2019-01-11T17:42:36.474Z,10.32
2019-01-11T17:45:11.041Z,10.50
2019-01-11T17:47:42.461Z,10.50
2019-01-11T17:50:18.797Z,9.05
2019-01-11T17:53:00.298Z,10.20
2019-01-11T17:55:31.740Z,8.85
2019-01-11T17:58:03.233Z,9.73
2019-01-11T18:00:34.889Z,10.43
2019-01-11T18:03:08.957Z,9.33
2019-01-11T18:05:40.317Z,9.15
2019-01-11T18:08:11.773Z,9.45
2019-01-11T18:10:43.359Z,8.78
2019-01-11T18:13:15.845Z,8.78
2019-01-11T18:15:47.263Z,10.23
2019-01-11T18:18:18.870Z,10.30
2019-01-11T18:20:54.814Z,9.90
2019-01-11T18:23:26.229Z,8.75
2019-01-11T18:25:57.676Z,10.08
2019-01-11T18:28:29.156Z,10.58
2019-01-11T18:31:00.655Z,11.18
2019-01-11T18:33:32.051Z,10.93
2019-01-11T18:36:04.481Z,11.73
2019-01-11T18:38:36.269Z,10.40
2019-01-11T18:41:07.630Z,10.88
2019-01-11T18:43:39.490Z,11.65
2019-01-11T18:46:11.160Z,10.95
2019-01-11T18:48:42.522Z,10.45
2019-01-11T18:51:14.358Z,10.18
2019-01-11T18:53:46.565Z,10.60
2019-01-11T18:56:17.967Z,10.50
2019-01-11T18:58:49.366Z,12.57
2019-01-11T19:01:31.077Z,10.75
2019-01-11T19:04:02.475Z,9.85
2019-01-11T19:06:33.953Z,10.15
2019-01-11T19:09:08.468Z,9.30
2019-01-11T19:11:39.966Z,10.00
2019-01-11T19:14:11.395Z,8.85
2019-01-11T19:16:42.696Z,9.90
2019-01-11T19:19:14.079Z,10.15
2019-01-11T19:21:45.580Z,9.73
2019-01-11T19:24:17.034Z,10.03
2019-01-11T19:26:48.452Z,8.95
2019-01-11T19:29:19.771Z,10.70
2019-01-11T19:31:51.271Z,10.63
2019-01-11T19:34:22.582Z,10.82
2019-01-11T19:36:53.938Z,10.65
2019-01-11T19:39:25.367Z,10.60
2019-01-11T19:41:56.850Z,12.82
2019-01-11T19:44:28.164Z,11.63
2019-01-11T19:46:59.635Z,11.35
2019-01-11T19:49:31.065Z,11.18
2019-01-11T19:52:02.478Z,11.00
2019-01-11T19:54:45.069Z,11.03
2019-01-11T19:57:16.540Z,11.12
2019-01-11T19:59:47.979Z,11.97
2019-01-11T20:02:19.338Z,10.98
2019-01-11T20:04:50.764Z,12.33
2019-01-11T20:07:22.228Z,13.00
2019-01-11T20:09:53.841Z,13.15
2019-01-11T20:12:25.292Z,13.43
2019-01-11T20:14:57.420Z,12.60
2019-01-11T20:17:29.488Z,13.85
2019-01-11T20:20:01.037Z,12.88
2019-01-11T20:22:34.906Z,11.80
2019-01-11T20:25:11.862Z,13.78
2019-01-11T20:27:43.369Z,10.95
2019-01-11T20:30:18.444Z,12.20
2019-01-11T20:32:50.008Z,11.53
2019-01-11T20:35:24.093Z,11.63
2019-01-11T20:37:57.154Z,12.10
2019-01-11T20:40:28.598Z,11.30
2019-01-11T20:43:03.807Z,11.40
2019-01-11T20:45:35.294Z,13.65
2019-01-11T20:48:06.616Z,13.53
2019-01-11T20:50:37.992Z,13.10
2019-01-11T20:53:09.445Z,12.05
2019-01-11T20:55:40.841Z,13.13
2019-01-11T20:58:12.357Z,12.13
2019-01-11T21:00:43.806Z,12.15
2019-01-11T21:03:15.442Z,13.55
2019-01-11T21:05:46.794Z,11.93
2019-01-11T21:08:18.136Z,12.40
2019-01-11T21:10:49.525Z,13.40
2019-01-11T21:13:20.913Z,13.20
2019-01-11T21:15:52.311Z,13.57
2019-01-11T21:18:23.733Z,11.35
2019-01-11T21:20:55.068Z,13.28
2019-01-11T21:23:26.429Z,11.90
2019-01-11T21:25:57.901Z,12.98
2019-01-11T21:28:29.352Z,13.68
2019-01-11T21:31:00.854Z,14.55
2019-01-11T21:33:32.327Z,12.43
2019-01-11T21:36:04.928Z,14.85
2019-01-11T21:38:36.415Z,13.43
2019-01-11T21:41:07.829Z,12.98
2019-01-11T21:43:39.539Z,12.43
2019-01-11T21:46:11.053Z,11.85
2019-01-11T21:48:42.530Z,14.95
2019-01-11T21:51:13.914Z,12.80
2019-01-11T21:53:45.331Z,12.93
2019-01-11T21:56:19.330Z,13.38
2019-01-11T21:58:50.730Z,13.38
2019-01-11T22:01:22.151Z,13.25
2019-01-11T22:03:53.447Z,14.03
2019-01-11T22:06:24.772Z,13.25
2019-01-11T22:08:56.176Z,12.18
2019-01-11T22:11:27.576Z,11.90
2019-01-11T22:13:59.022Z,14.15
2019-01-11T22:16:30.300Z,16.15
2019-01-11T22:19:01.630Z,14.35
2019-01-11T22:21:32.981Z,13.00
2019-01-11T22:24:04.427Z,12.80
2019-01-11T22:26:35.871Z,14.65
2019-01-11T22:29:08.147Z,13.10
2019-01-11T22:31:39.557Z,13.30
2019-01-11T22:34:10.997Z,14.30
2019-01-11T22:36:42.404Z,14.60
2019-01-11T22:39:13.835Z,14.38
2019-01-11T22:41:45.271Z,13.30
2019-01-11T22:44:16.723Z,13.90
2019-01-11T22:46:48.157Z,13.05
2019-01-11T22:49:19.574Z,14.43
2019-01-11T22:51:50.934Z,13.70
2019-01-11T22:54:22.317Z,13.00
2019-01-11T22:56:54.082Z,14.10
2019-01-11T22:59:25.534Z,13.43
2019-01-11T23:02:16.427Z,14.58
2019-01-11T23:04:48.319Z,13.60
2019-01-11T23:07:44.608Z,13.40
2019-01-11T23:10:59.999Z,12.68
2019-01-11T23:13:31.420Z,13.65
2019-01-11T23:16:39.675Z,13.67
2019-01-11T23:19:11.089Z,13.30
2019-01-11T23:21:42.560Z,12.98
2019-01-11T23:24:17.600Z,11.68
2019-01-11T23:26:47.157Z,12.82
2019-01-11T23:29:18.606Z,14.13
2019-01-11T23:31:49.894Z,13.28
2019-01-11T23:34:21.347Z,12.53
2019-01-11T23:36:52.790Z,13.20
2019-01-11T23:39:24.436Z,12.25
2019-01-11T23:41:55.884Z,12.78
2019-01-11T23:44:27.239Z,13.70
2019-01-11T23:46:58.597Z,12.90
2019-01-11T23:49:30.047Z,14.00
2019-01-11T23:52:02.405Z,13.78
2019-01-11T23:54:33.659Z,12.43
2019-01-11T23:57:05.057Z,12.68
2019-01-11T23:59:36.406Z,12.70
